Prospectville, Pennsylvania
Current Conditions -  °F | °C
As of 4:15 PM on Monday 24 Nov 2014 (Local Time) from KLOM Reporting Station
Clear Clear  
Wind Chill: 68°   Ceiling: Unl
Heat Index: 68°   Visibility: 10mi
Dew Point: 55°   Wind: 16mph
Humidity: 64%   Direction: 210°SSW
Pressure: 29.63"   Gusts: 23mph
Location:  40.1823°N, 75.2133°W
Report Text: KLOM 242115Z AUTO 21014G20KT 10SM CLR 20/13 A2963 RMK AO1
Loading
Personal Weather Stations






























Interactive Weather Map New forecast layout! Learn more

10-Day Weather Forecast

Advertisements
Track Severe Weather on mobile